METAR AND TAF INFORMATION
METAR FOR BKPR
ADDS - METARS form results

(1426 UTC 18 July 2018)
Data provider http://aviationweather.gov/adds/metars/
 
METAR text: BKPR 181400Z 30008KT 9999 FEW040TCU SCT045 26/11 Q1012 NOSIG
Conditions at: BKPR (PRISHTINA , CS) observed 1400 UTC 18 July 2018
Temperature: 26.0°C (79°F)
Dewpoint: 11.0°C (52°F) [RH = 39%]
Pressure (altimeter): 29.88 inches Hg (1012.0 mb)
Winds: from the WNW (300 degrees) at 9 MPH (8 knots; 4.2 m/s)
Visibility: 6 or more miles (10+ km)
Ceiling: at least 12,000 feet AGL
Clouds: few clouds at 4000 feet AGL
scattered clouds at 4500 feet AGL
Weather: no significant weather observed at this time

METAR text: BKPR 181330Z 30007KT 9999 FEW040TCU SCT045 26/10 Q1012 NOSIG
Conditions at: BKPR (PRISHTINA , CS) observed 1330 UTC 18 July 2018
Temperature: 26.0°C (79°F)
Dewpoint: 10.0°C (50°F) [RH = 37%]
Pressure (altimeter): 29.88 inches Hg (1012.0 mb)
Winds: from the WNW (300 degrees) at 8 MPH (7 knots; 3.6 m/s)
Visibility: 6 or more miles (10+ km)
Ceiling: at least 12,000 feet AGL
Clouds: few clouds at 4000 feet AGL
scattered clouds at 4500 feet AGL
Weather: no significant weather observed at this time

Forecast for: BKPR (PRISHTINA , CS)
Text: TAF BKPR 181130Z 1812/1912 33010KT 9999 SCT040
Forecast period: 1200 UTC 18 July 2018 to 1200 UTC 19 July 2018
Forecast type: FROM: standard forecast or significant change
Winds: from the NNW (330 degrees) at 12 MPH (10 knots; 5.2 m/s)
Visibility: 6 or more miles (10+ km)
Clouds: scattered clouds at 4000 feet AGL
Weather: no significant weather forecast for this period
Text: PROB30
Forecast period: 1200 to 1800 UTC 18 July 2018
Forecast type: TEMPORARY: The following changes expected for less than half the time period
Winds: variable direction winds at 17 MPH (15 knots; 7.8 m/s)
gusting to 29 MPH (25 knots; 13.0 m/s)
Visibility: 3 miles (5 km)
Clouds: few clouds at 2500 feet AGL
Weather: -TSRA  (light rain associated with thunderstorm(s))

 AIRPORT MAP

 RUNWAY INFORMATION
Runway 17 Runway length 8165 ft Runway width 148 ft
Runway elevation 1789 ft Runway displaced threshold 0 ft Runway heading 176
Runway 35 Runway length 8165 ft Runway width 148 ft
Runway elevation 1786 ft Runway displaced threshold 0 ft Runway heading 356

 AIRPORT FREQUENCIES
Type APP Name APP Frequency 118.775 MHZ
Type GND Name GND Frequency 118 MHZ
Type RMP Name RAMP OPR Frequency 136.8 MHZ
Type TWR Name TWR Frequency 120.125 MHZ

 AIRPORT NEAR NAVIGATION AIDS